Time;durP1;ratioP1;P1;durP2;ratioP2;P2;SDS_P1;SDS_P2;PMS_P1;PMS_P2;Temp;Humidity;BMP_temperature;BMP_pressure;BME280_temperature;BME280_humidity;BME280_pressure;Samples;Min_cycle;Max_cycle;Signal;HPM_P1;HPM_P2
2022/05/28 00:02:02;;;;;;;;;;;;;;;;;;5038527;28;28246;-89
2022/05/28 00:04:27;;;;;;;;;;;;;;;;;;5038343;28;28326;-89
2022/05/28 00:06:52;;;;;;;;;;;;;;;;;;5038060;28;28710;-89
2022/05/28 00:09:17;;;;;;;;;;;;;;;;;;5036808;28;28257;-90
2022/05/28 00:11:42;;;;;;;;;;;;;;;;;;5038041;28;28473;-89
2022/05/28 00:14:07;;;;;;;;;;;;;;;;;;5037622;28;28352;-90
2022/05/28 00:16:32;;;;;;;;;;;;;;;;;;5037742;28;28527;-90
2022/05/28 00:18:58;;;;;;;;;;;;;;;;;;5037834;28;28407;-89
2022/05/28 00:21:23;;;;;;;;;;;;;;;;;;5037837;28;28505;-89
2022/05/28 00:23:48;;;;;;;;;;;;;;;;;;5038060;28;28307;-90
2022/05/28 00:26:13;;;;;;;;;;;;;;;;;;5037798;28;28672;-89
2022/05/28 00:28:38;;;;;;;;;;;;;;;;;;5036686;28;28857;-91
2022/05/28 00:31:03;;;;;;;;;;;;;;;;;;5038318;28;28977;-91
2022/05/28 00:33:30;;;;;;;;;;;;;;;;;;5037837;28;28281;-92
2022/05/28 00:35:55;;;;;;;;;;;;;;;;;;5038203;28;28514;-90
2022/05/28 00:38:20;;;;;;;;;;;;;;;;;;5037767;28;28352;-90
2022/05/28 00:40:45;;;;;;;;;;;;;;;;;;5037782;28;28224;-90
2022/05/28 00:43:10;;;;;;;;;;;;;;;;;;5038475;28;28321;-90
2022/05/28 00:45:35;;;;;;;;;;;;;;;;;;5038093;28;28568;-91
2022/05/28 00:48:01;;;;;;;;;;;;;;;;;;5038470;28;28400;-92
2022/05/28 00:50:26;;;;;;;;;;;;;;;;;;5036814;28;28313;-90
2022/05/28 00:52:51;;;;;;;;;;;;;;;;;;5038216;28;28293;-90
2022/05/28 00:55:17;;;;;;;;;;;;;;;;;;5038162;28;28676;-90
2022/05/28 00:57:42;;;;;;;;;;;;;;;;;;5037610;28;27983;-90
2022/05/28 01:00:07;;;;;;;;;;;;;;;;;;5038063;28;28357;-90
2022/05/28 01:02:32;;;;;;;;;;;;;;;;;;5038023;28;28432;-91
2022/05/28 01:04:58;;;;;;;;;;;;;;;;;;5036563;28;29973;-89
2022/05/28 01:07:23;;;;;;;;;;;;;;;;;;5038157;28;28414;-90
2022/05/28 01:09:48;;;;;;;;;;;;;;;;;;5037753;28;28361;-90
2022/05/28 01:12:13;;;;;;;;;;;;;;;;;;5038243;28;28321;-91
2022/05/28 01:14:38;;;;;;;;;;;;;;;;;;5037555;28;29555;-90
2022/05/28 01:17:03;;;;;;;;;;;;;;;;;;5036674;28;28515;-90
2022/05/28 01:19:29;;;;;;;;;;;;;;;;;;5037850;28;28376;-91
2022/05/28 01:21:54;;;;;;;;;;;;;;;;;;5037935;28;28475;-88
2022/05/28 01:24:19;;;;;;;;;;;;;;;;;;5037561;28;28338;-89
2022/05/28 01:26:44;;;;;;;;;;;;;;;;;;5036493;28;28566;-89
2022/05/28 01:29:09;;;;;;;;;;;;;;;;;;5036260;28;28449;-89
2022/05/28 01:31:34;;;;;;;;;;;;;;;;;;5036177;28;28384;-88
2022/05/28 01:33:59;;;;;;;;;;;;;;;;;;5036150;28;29824;-89
2022/05/28 01:36:24;;;;;;;;;;;;;;;;;;5037453;28;28461;-88
2022/05/28 01:38:49;;;;;;;;;;;;;;;;;;5037467;28;28379;-88
2022/05/28 01:41:15;;;;;;;;;;;;;;;;;;5037960;28;28530;-89
2022/05/28 01:43:40;;;;;;;;;;;;;;;;;;5037074;28;28423;-88
2022/05/28 01:46:05;;;;;;;;;;;;;;;;;;5037192;28;28529;-89
2022/05/28 01:48:30;;;;;;;;;;;;;;;;;;5037474;28;28340;-89
2022/05/28 01:50:55;;;;;;;;;;;;;;;;;;5037376;28;28375;-89
2022/05/28 01:56:04;;;;;;;;;;;;;;;;;;5037140;28;28450;-89
2022/05/28 01:58:29;;;;;;;;;;;;;;;;;;5036996;28;28454;-88
2022/05/28 02:00:54;;;;;;;;;;;;;;;;;;5037247;28;27899;-88
2022/05/28 02:03:19;;;;;;;;;;;;;;;;;;5035424;28;30066;-88
2022/05/28 02:05:44;;;;;;;;;;;;;;;;;;5037070;28;28374;-88
2022/05/28 02:08:10;;;;;;;;;;;;;;;;;;5036522;28;28411;-88
2022/05/28 02:10:35;;;;;;;;;;;;;;;;;;5035510;28;28562;-88
2022/05/28 02:13:00;;;;;;;;;;;;;;;;;;5036848;28;29751;-88
2022/05/28 02:15:25;;;;;;;;;;;;;;;;;;5036745;28;28431;-90
2022/05/28 02:17:52;;;;;;;;;;;;;;;;;;5037149;28;28309;-90
2022/05/28 02:20:17;;;;;;;;;;;;;;;;;;5037036;28;28250;-90
2022/05/28 02:22:42;;;;;;;;;;;;;;;;;;5035220;28;30923;-91
2022/05/28 02:25:07;;;;;;;;;;;;;;;;;;5034843;28;29046;-91
2022/05/28 02:27:32;;;;;;;;;;;;;;;;;;5036286;28;28272;-91
2022/05/28 02:29:57;;;;;;;;;;;;;;;;;;5035076;28;28387;-89
2022/05/28 02:32:22;;;;;;;;;;;;;;;;;;5036499;28;28813;-90
2022/05/28 02:34:50;;;;;;;;;;;;;;;;;;5036192;28;28262;-89
2022/05/28 02:37:15;;;;;;;;;;;;;;;;;;5036801;28;28345;-89
2022/05/28 02:39:40;;;;;;;;;;;;;;;;;;5036374;28;28277;-89
2022/05/28 02:42:05;;;;;;;;;;;;;;;;;;5036281;28;28366;-90
2022/05/28 02:44:31;;;;;;;;;;;;;;;;;;5036570;28;28250;-89
2022/05/28 02:46:56;;;;;;;;;;;;;;;;;;5036250;28;28247;-89
2022/05/28 02:49:21;;;;;;;;;;;;;;;;;;5036508;28;28341;-90
2022/05/28 02:51:46;;;;;;;;;;;;;;;;;;5036475;28;29327;-90
2022/05/28 02:54:11;;;;;;;;;;;;;;;;;;5035882;28;28593;-90
2022/05/28 02:56:36;;;;;;;;;;;;;;;;;;5035692;28;28400;-90
2022/05/28 02:59:02;;;;;;;;;;;;;;;;;;5036752;28;28430;-89
2022/05/28 03:01:27;;;;;;;;;;;;;;;;;;5036677;28;29109;-90
2022/05/28 03:03:52;;;;;;;;;;;;;;;;;;5035967;28;28520;-90
2022/05/28 03:06:17;;;;;;;;;;;;;;;;;;5034818;28;28310;-89
2022/05/28 03:08:42;;;;;;;;;;;;;;;;;;5036072;28;28353;-90
2022/05/28 03:11:07;;;;;;;;;;;;;;;;;;5034471;28;28512;-89
2022/05/28 03:13:32;;;;;;;;;;;;;;;;;;5035781;28;28412;-89
2022/05/28 03:15:57;;;;;;;;;;;;;;;;;;5036154;28;28309;-90
2022/05/28 03:18:22;;;;;;;;;;;;;;;;;;5036241;28;28384;-90
2022/05/28 03:20:47;;;;;;;;;;;;;;;;;;5034629;28;28327;-91
2022/05/28 03:23:12;;;;;;;;;;;;;;;;;;5034521;28;29449;-91
2022/05/28 03:25:38;;;;;;;;;;;;;;;;;;5035532;28;28468;-90
2022/05/28 03:28:03;;;;;;;;;;;;;;;;;;5036153;28;28534;-90
2022/05/28 03:30:28;;;;;;;;;;;;;;;;;;5035549;28;28452;-90
2022/05/28 03:32:53;;;;;;;;;;;;;;;;;;5035676;28;28303;-90
2022/05/28 03:35:18;;;;;;;;;;;;;;;;;;5035759;28;28412;-90
2022/05/28 03:37:43;;;;;;;;;;;;;;;;;;5035374;28;28473;-91
2022/05/28 03:40:08;;;;;;;;;;;;;;;;;;5035273;28;28530;-90
2022/05/28 03:42:33;;;;;;;;;;;;;;;;;;5033797;28;28424;-89
2022/05/28 03:44:58;;;;;;;;;;;;;;;;;;5035162;28;28466;-90
2022/05/28 03:47:24;;;;;;;;;;;;;;;;;;5035440;28;28340;-90
2022/05/28 03:49:49;;;;;;;;;;;;;;;;;;5033709;28;28530;-90
2022/05/28 03:52:14;;;;;;;;;;;;;;;;;;5034770;28;28518;-90
2022/05/28 03:54:43;;;;;;;;;;;;;;;;;;5035159;28;28527;-90
2022/05/28 03:57:08;;;;;;;;;;;;;;;;;;5035217;28;28289;-90
2022/05/28 03:59:34;;;;;;;;;;;;;;;;;;5035080;28;29500;-89
2022/05/28 04:01:59;;;;;;;;;;;;;;;;;;5033442;28;28647;-90
2022/05/28 04:04:24;;;;;;;;;;;;;;;;;;5034755;28;28461;-90
2022/05/28 04:06:49;;;;;;;;;;;;;;;;;;5035395;28;28479;-90
2022/05/28 04:09:14;;;;;;;;;;;;;;;;;;5034744;28;28278;-90
2022/05/28 04:11:39;;;;;;;;;;;;;;;;;;5033218;28;28409;-90
2022/05/28 04:14:04;;;;;;;;;;;;;;;;;;5034731;28;28940;-91
2022/05/28 04:16:32;;;;;;;;;;;;;;;;;;5034563;28;28554;-89
2022/05/28 04:18:57;;;;;;;;;;;;;;;;;;5035108;28;29556;-90
2022/05/28 04:21:22;;;;;;;;;;;;;;;;;;5034783;28;32258;-90
2022/05/28 04:23:47;;;;;;;;;;;;;;;;;;5034886;28;28525;-89
2022/05/28 04:26:12;;;;;;;;;;;;;;;;;;5034517;28;28415;-90
2022/05/28 04:28:37;;;;;;;;;;;;;;;;;;5034251;28;28523;-90
2022/05/28 04:31:02;;;;;;;;;;;;;;;;;;5034646;28;28348;-91
2022/05/28 04:33:27;;;;;;;;;;;;;;;;;;5037686;28;28476;-90
2022/05/28 04:35:52;;;;;;;;;;;;;;;;;;5038171;28;27844;-90
2022/05/28 04:38:17;;;;;;;;;;;;;;;;;;5037934;28;28463;-90
2022/05/28 04:40:43;;;;;;;;;;;;;;;;;;5036835;28;28435;-90
2022/05/28 04:43:08;;;;;;;;;;;;;;;;;;5036840;28;28271;-90
2022/05/28 04:45:33;;;;;;;;;;;;;;;;;;5038005;28;28277;-90
2022/05/28 04:47:58;;;;;;;;;;;;;;;;;;5037940;28;28604;-90
2022/05/28 04:50:23;;;;;;;;;;;;;;;;;;5036817;28;28413;-90
2022/05/28 04:52:48;;;;;;;;;;;;;;;;;;5037001;28;28436;-90
2022/05/28 04:55:13;;;;;;;;;;;;;;;;;;5036383;28;28571;-91
2022/05/28 04:57:38;;;;;;;;;;;;;;;;;;5037484;28;28464;-90
2022/05/28 05:00:04;;;;;;;;;;;;;;;;;;5036212;28;28451;-92
2022/05/28 05:02:29;;;;;;;;;;;;;;;;;;5037784;28;28438;-90
2022/05/28 05:04:54;;;;;;;;;;;;;;;;;;5038351;28;27745;-90
2022/05/28 05:07:19;;;;;;;;;;;;;;;;;;5037827;28;28357;-91
2022/05/28 05:09:44;;;;;;;;;;;;;;;;;;5037949;28;28342;-90
2022/05/28 05:12:09;;;;;;;;;;;;;;;;;;5036039;28;28538;-89
2022/05/28 05:14:34;;;;;;;;;;;;;;;;;;5036521;28;28313;-90
2022/05/28 05:16:59;;;;;;;;;;;;;;;;;;5037613;28;28383;-89
2022/05/28 05:19:24;;;;;;;;;;;;;;;;;;5037463;28;28411;-91
2022/05/28 05:21:49;;;;;;;;;;;;;;;;;;5037540;28;28545;-91
2022/05/28 05:24:15;;;;;;;;;;;;;;;;;;5036383;28;28401;-91
2022/05/28 05:26:40;;;;;;;;;;;;;;;;;;5037066;28;28626;-91
2022/05/28 05:29:05;;;;;;;;;;;;;;;;;;5037826;28;28467;-91
2022/05/28 05:31:30;;;;;;;;;;;;;;;;;;5035856;28;28487;-91
2022/05/28 05:33:55;;;;;;;;;;;;;;;;;;5037699;28;28442;-91
2022/05/28 05:36:20;;;;;;;;;;;;;;;;;;5037746;28;28631;-92
2022/05/28 05:38:45;;;;;;;;;;;;;;;;;;5037465;28;32129;-92
2022/05/28 05:41:10;;;;;;;;;;;;;;;;;;5037412;28;28391;-91
2022/05/28 05:43:35;;;;;;;;;;;;;;;;;;5036752;28;28552;-90
2022/05/28 05:46:00;;;;;;;;;;;;;;;;;;5037538;28;28459;-91
2022/05/28 05:48:26;;;;;;;;;;;;;;;;;;5036181;28;28906;-91
2022/05/28 05:50:51;;;;;;;;;;;;;;;;;;5037776;28;28333;-91
2022/05/28 05:53:16;;;;;;;;;;;;;;;;;;5037924;28;28318;-89
2022/05/28 05:55:41;;;;;;;;;;;;;;;;;;5036326;28;28539;-89
2022/05/28 05:58:06;;;;;;;;;;;;;;;;;;5037305;28;28396;-90
2022/05/28 06:00:31;;;;;;;;;;;;;;;;;;5037182;28;28333;-91
2022/05/28 06:02:56;;;;;;;;;;;;;;;;;;5037156;28;28240;-90
2022/05/28 06:05:21;;;;;;;;;;;;;;;;;;5037243;28;28419;-91
2022/05/28 06:07:46;;;;;;;;;;;;;;;;;;5036599;28;28321;-91
2022/05/28 06:10:12;;;;;;;;;;;;;;;;;;5036922;28;28325;-90
2022/05/28 06:12:37;;;;;;;;;;;;;;;;;;5036977;28;35942;-91
2022/05/28 06:15:02;;;;;;;;;;;;;;;;;;5036791;28;29671;-90
2022/05/28 06:17:27;;;;;;;;;;;;;;;;;;5037130;28;28253;-91
2022/05/28 06:19:52;;;;;;;;;;;;;;;;;;5036894;28;28241;-90
2022/05/28 06:22:17;;;;;;;;;;;;;;;;;;5035709;28;28404;-90
2022/05/28 06:24:42;;;;;;;;;;;;;;;;;;5036882;28;28664;-91
2022/05/28 06:27:07;;;;;;;;;;;;;;;;;;5036919;28;28246;-91
2022/05/28 06:29:32;;;;;;;;;;;;;;;;;;5037088;28;28262;-92
2022/05/28 06:31:57;;;;;;;;;;;;;;;;;;5036762;28;28432;-89
2022/05/28 06:34:23;;;;;;;;;;;;;;;;;;5035342;28;29854;-90
2022/05/28 06:36:48;;;;;;;;;;;;;;;;;;5036389;28;28286;-90
2022/05/28 06:39:13;;;;;;;;;;;;;;;;;;5036519;28;28412;-89
2022/05/28 06:41:38;;;;;;;;;;;;;;;;;;5035973;28;28420;-90
2022/05/28 06:44:03;;;;;;;;;;;;;;;;;;5036295;28;28351;-89
2022/05/28 06:46:28;;;;;;;;;;;;;;;;;;5036618;28;28270;-89
2022/05/28 06:48:53;;;;;;;;;;;;;;;;;;5036494;28;28332;-91
2022/05/28 06:51:18;;;;;;;;;;;;;;;;;;5036562;28;28235;-90
2022/05/28 06:53:45;;;;;;;;;;;;;;;;;;5034820;28;28544;-90
2022/05/28 06:56:10;;;;;;;;;;;;;;;;;;5035281;28;28272;-90
2022/05/28 06:58:35;;;;;;;;;;;;;;;;;;5034834;28;28381;-89
2022/05/28 07:01:00;;;;;;;;;;;;;;;;;;5036429;28;28409;-90
2022/05/28 07:03:26;;;;;;;;;;;;;;;;;;5036467;28;28414;-89
2022/05/28 07:05:51;;;;;;;;;;;;;;;;;;5035804;28;28250;-90
2022/05/28 07:08:16;;;;;;;;;;;;;;;;;;5036024;28;28297;-89
2022/05/28 07:10:41;;;;;;;;;;;;;;;;;;5036395;28;28456;-90
2022/05/28 07:13:06;;;;;;;;;;;;;;;;;;5034326;28;28550;-89
2022/05/28 07:15:31;;;;;;;;;;;;;;;;;;5035339;28;28543;-88
2022/05/28 07:17:56;;;;;;;;;;;;;;;;;;5035836;28;28526;-89
2022/05/28 07:20:21;;;;;;;;;;;;;;;;;;5036343;28;28403;-88
2022/05/28 07:22:46;;;;;;;;;;;;;;;;;;5034359;28;29890;-91
2022/05/28 07:25:12;;;;;;;;;;;;;;;;;;5035402;28;28543;-91
2022/05/28 07:27:37;;;;;;;;;;;;;;;;;;5034742;28;28479;-91
2022/05/28 07:30:02;;;;;;;;;;;;;;;;;;5040733;28;28482;-91
2022/05/28 07:32:30;;;;;;;;;;;;;;;;;;5033472;28;29743;-91
2022/05/28 07:34:55;;;;;;;;;;;;;;;;;;5034962;28;28472;-90
2022/05/28 07:37:20;;;;;;;;;;;;;;;;;;5033912;28;28971;-93
2022/05/28 07:39:45;;;;;;;;;;;;;;;;;;5035432;28;28459;-90
2022/05/28 07:42:10;;;;;;;;;;;;;;;;;;5034622;28;28409;-90
2022/05/28 07:44:35;;;;;;;;;;;;;;;;;;5034978;28;28387;-90
2022/05/28 07:47:00;;;;;;;;;;;;;;;;;;5034858;28;28383;-89
2022/05/28 07:49:26;;;;;;;;;;;;;;;;;;5034992;28;28440;-90
2022/05/28 07:51:51;;;;;;;;;;;;;;;;;;5035037;28;29308;-91
2022/05/28 07:54:16;;;;;;;;;;;;;;;;;;5033902;28;28587;-92
2022/05/28 07:56:41;;;;;;;;;;;;;;;;;;5034638;28;28344;-91
2022/05/28 07:59:06;;;;;;;;;;;;;;;;;;5035364;28;28305;-91
2022/05/28 08:01:31;;;;;;;;;;;;;;;;;;5034606;28;28405;-89
2022/05/28 08:03:59;;;;;;;;;;;;;;;;;;5034589;28;28308;-91
2022/05/28 08:06:24;;;;;;;;;;;;;;;;;;5034986;28;28301;-93
2022/05/28 08:08:51;;;;;;;;;;;;;;;;;;5037445;28;27900;-92
2022/05/28 08:11:16;;;;;;;;;;;;;;;;;;5038192;28;28588;-90
2022/05/28 08:13:41;;;;;;;;;;;;;;;;;;5037910;28;28401;-89
2022/05/28 08:16:07;;;;;;;;;;;;;;;;;;5038008;28;28510;-88
2022/05/28 08:18:32;;;;;;;;;;;;;;;;;;5037943;28;28452;-89
2022/05/28 08:23:41;;;;;;;;;;;;;;;;;;5037637;28;28345;-88
2022/05/28 08:26:06;;;;;;;;;;;;;;;;;;5037874;28;28328;-87
2022/05/28 08:28:31;;;;;;;;;;;;;;;;;;5038165;28;28229;-87
2022/05/28 08:30:56;;;;;;;;;;;;;;;;;;5037542;28;28493;-87
2022/05/28 08:33:21;;;;;;;;;;;;;;;;;;5037427;28;28467;-87
2022/05/28 08:35:47;;;;;;;;;;;;;;;;;;5037876;28;28404;-86
2022/05/28 08:38:12;;;;;;;;;;;;;;;;;;5037697;28;28413;-86
2022/05/28 08:40:37;;;;;;;;;;;;;;;;;;5037785;28;28441;-87
2022/05/28 08:43:02;;;;;;;;;;;;;;;;;;5037364;28;28361;-90
2022/05/28 08:45:27;;;;;;;;;;;;;;;;;;5036015;28;28432;-90
2022/05/28 08:47:54;;;;;;;;;;;;;;;;;;5037902;28;28353;-88
2022/05/28 08:50:20;;;;;;;;;;;;;;;;;;5037659;28;28392;-89
2022/05/28 08:52:45;;;;;;;;;;;;;;;;;;5037675;28;28428;-89
2022/05/28 08:55:10;;;;;;;;;;;;;;;;;;5037138;28;28460;-91
2022/05/28 08:57:35;;;;;;;;;;;;;;;;;;5038098;28;28565;-91
2022/05/28 09:00:00;;;;;;;;;;;;;;;;;;5037377;28;29398;-90
2022/05/28 09:02:25;;;;;;;;;;;;;;;;;;5037372;28;28265;-93
2022/05/28 09:04:50;;;;;;;;;;;;;;;;;;5037509;28;28394;-90
2022/05/28 09:07:17;;;;;;;;;;;;;;;;;;5036214;28;28377;-89
2022/05/28 09:09:42;;;;;;;;;;;;;;;;;;5037317;28;28470;-88
2022/05/28 09:12:07;;;;;;;;;;;;;;;;;;5036094;28;29275;-92
2022/05/28 09:14:32;;;;;;;;;;;;;;;;;;5036034;28;28329;-87
2022/05/28 09:16:57;;;;;;;;;;;;;;;;;;5037732;28;28370;-90
2022/05/28 09:19:22;;;;;;;;;;;;;;;;;;5036975;28;29201;-88
2022/05/28 09:21:47;;;;;;;;;;;;;;;;;;5037025;28;28443;-88
2022/05/28 09:24:12;;;;;;;;;;;;;;;;;;5037302;28;28300;-86
2022/05/28 09:26:37;;;;;;;;;;;;;;;;;;5037186;28;28341;-86
2022/05/28 09:29:02;;;;;;;;;;;;;;;;;;5036999;28;29406;-87
2022/05/28 09:31:28;;;;;;;;;;;;;;;;;;5056211;28;28291;-88
2022/05/28 09:33:53;;;;;;;;;;;;;;;;;;5057160;28;28372;-89
2022/05/28 09:36:18;;;;;;;;;;;;;;;;;;5057063;28;28296;-87
2022/05/28 09:38:43;;;;;;;;;;;;;;;;;;5055300;28;29903;-87
2022/05/28 09:41:08;;;;;;;;;;;;;;;;;;5055495;28;28254;-88
2022/05/28 09:43:33;;;;;;;;;;;;;;;;;;5055230;28;28257;-88
2022/05/28 09:45:58;;;;;;;;;;;;;;;;;;5056900;28;28241;-86
2022/05/28 09:48:23;;;;;;;;;;;;;;;;;;5055521;28;28466;-87
2022/05/28 09:50:48;;;;;;;;;;;;;;;;;;5056405;28;28288;-86
2022/05/28 09:55:57;;;;;;;;;;;;;;;;;;5056453;28;28612;-91
2022/05/28 09:58:23;;;;;;;;;;;;;;;;;;5056161;28;28352;-86
2022/05/28 10:00:48;;;;;;;;;;;;;;;;;;5055051;28;28285;-85
2022/05/28 10:05:57;;;;;;;;;;;;;;;;;;5056432;28;28403;-86
2022/05/28 10:08:22;;;;;;;;;;;;;;;;;;5056322;28;28572;-86
2022/05/28 10:10:47;;;;;;;;;;;;;;;;;;5056224;28;28300;-86
2022/05/28 10:13:13;;;;;;;;;;;;;;;;;;5056046;28;28958;-86
2022/05/28 10:15:38;;;;;;;;;;;;;;;;;;5056236;28;28475;-87
2022/05/28 10:18:03;;;;;;;;;;;;;;;;;;5056105;28;29571;-87
2022/05/28 10:20:28;;;;;;;;;;;;;;;;;;5055864;28;28398;-87
2022/05/28 10:22:53;;;;;;;;;;;;;;;;;;5056348;28;28283;-87
2022/05/28 10:25:19;;;;;;;;;;;;;;;;;;5056279;28;28303;-87
2022/05/28 10:27:44;;;;;;;;;;;;;;;;;;5055921;28;28517;-87
2022/05/28 10:30:09;;;;;;;;;;;;;;;;;;5055163;28;28221;-88
2022/05/28 10:32:34;;;;;;;;;;;;;;;;;;5055717;28;28610;-88
2022/05/28 10:34:59;;;;;;;;;;;;;;;;;;5055926;28;28453;-88
2022/05/28 10:37:24;;;;;;;;;;;;;;;;;;5055960;28;29558;-88
2022/05/28 10:39:49;;;;;;;;;;;;;;;;;;5055996;28;28243;-87
2022/05/28 10:42:16;;;;;;;;;;;;;;;;;;5055950;28;28336;-89
2022/05/28 10:44:41;;;;;;;;;;;;;;;;;;5055982;28;28373;-90
2022/05/28 10:47:07;;;;;;;;;;;;;;;;;;5055530;28;28545;-93
2022/05/28 10:49:32;;;;;;;;;;;;;;;;;;5055785;28;28435;-86
2022/05/28 10:51:58;;;;;;;;;;;;;;;;;;5055586;28;28381;-88
2022/05/28 10:54:23;;;;;;;;;;;;;;;;;;5056055;28;28368;-88
2022/05/28 10:56:48;;;;;;;;;;;;;;;;;;5055727;28;29294;-87
2022/05/28 10:59:14;;;;;;;;;;;;;;;;;;5055298;28;28406;-90
2022/05/28 11:01:40;;;;;;;;;;;;;;;;;;5055805;28;28455;-88
2022/05/28 11:04:06;;;;;;;;;;;;;;;;;;5055518;28;28419;-89
2022/05/28 11:06:32;;;;;;;;;;;;;;;;;;5055432;28;28396;-87
2022/05/28 11:08:57;;;;;;;;;;;;;;;;;;5055520;28;28364;-88
2022/05/28 11:11:23;;;;;;;;;;;;;;;;;;5055251;28;28240;-87
2022/05/28 11:13:48;;;;;;;;;;;;;;;;;;5055274;28;28464;-87
2022/05/28 11:16:13;;;;;;;;;;;;;;;;;;5055272;28;28248;-89
2022/05/28 11:18:38;;;;;;;;;;;;;;;;;;5054042;28;29487;-90
2022/05/28 11:21:03;;;;;;;;;;;;;;;;;;5055882;28;28397;-87
2022/05/28 11:23:28;;;;;;;;;;;;;;;;;;5055775;28;28307;-89
2022/05/28 11:25:53;;;;;;;;;;;;;;;;;;5055685;28;28412;-90
2022/05/28 11:28:20;;;;;;;;;;;;;;;;;;5049217;28;28393;-87
2022/05/28 11:30:45;;;;;;;;;;;;;;;;;;5054179;28;28328;-88
2022/05/28 11:33:10;;;;;;;;;;;;;;;;;;5055066;28;28494;-88
2022/05/28 11:35:35;;;;;;;;;;;;;;;;;;5054964;28;28443;-88
2022/05/28 11:38:01;;;;;;;;;;;;;;;;;;5055418;28;28419;-84
2022/05/28 11:40:26;;;;;;;;;;;;;;;;;;5054600;28;28256;-88
2022/05/28 11:42:51;;;;;;;;;;;;;;;;;;5054103;28;28302;-85
2022/05/28 11:45:16;;;;;;;;;;;;;;;;;;5054782;28;28525;-84
2022/05/28 11:47:41;;;;;;;;;;;;;;;;;;5054980;28;28900;-86
2022/05/28 11:52:50;;;;;;;;;;;;;;;;;;5054859;28;28459;-83
2022/05/28 11:55:15;;;;;;;;;;;;;;;;;;5054788;28;29482;-86
2022/05/28 11:57:40;;;;;;;;;;;;;;;;;;5055207;28;28395;-87
2022/05/28 12:00:07;;;;;;;;;;;;;;;;;;5055033;28;28414;-86
2022/05/28 12:02:32;;;;;;;;;;;;;;;;;;5053318;28;28503;-84
2022/05/28 12:04:57;;;;;;;;;;;;;;;;;;5054558;28;28631;-86
2022/05/28 12:07:22;;;;;;;;;;;;;;;;;;5053379;28;28506;-86
2022/05/28 12:09:47;;;;;;;;;;;;;;;;;;5054885;28;28352;-86
2022/05/28 12:12:13;;;;;;;;;;;;;;;;;;5054595;28;28437;-84
2022/05/28 12:14:39;;;;;;;;;;;;;;;;;;5053220;28;29706;-84
2022/05/28 12:17:04;;;;;;;;;;;;;;;;;;5054484;28;28398;-85
2022/05/28 12:19:29;;;;;;;;;;;;;;;;;;5054421;28;27788;-86
2022/05/28 12:21:55;;;;;;;;;;;;;;;;;;5054781;28;28348;-88
2022/05/28 12:24:20;;;;;;;;;;;;;;;;;;5054285;28;28468;-89
2022/05/28 12:26:49;;;;;;;;;;;;;;;;;;5054328;28;28426;-87
2022/05/28 12:29:14;;;;;;;;;;;;;;;;;;5054583;28;28268;-88
2022/05/28 12:31:39;;;;;;;;;;;;;;;;;;5054111;28;28225;-89
2022/05/28 12:34:05;;;;;;;;;;;;;;;;;;5054360;28;28592;-89
2022/05/28 12:36:30;;;;;;;;;;;;;;;;;;5054071;28;28295;-88
2022/05/28 12:38:55;;;;;;;;;;;;;;;;;;5054270;28;28332;-88
2022/05/28 12:41:20;;;;;;;;;;;;;;;;;;5054484;28;28889;-88
2022/05/28 12:43:46;;;;;;;;;;;;;;;;;;5054159;28;28626;-91
2022/05/28 12:46:12;;;;;;;;;;;;;;;;;;5054464;28;28294;-89
2022/05/28 12:48:38;;;;;;;;;;;;;;;;;;5054965;28;28438;-91
2022/05/28 12:51:03;;;;;;;;;;;;;;;;;;5054727;28;28336;-89
2022/05/28 12:53:28;;;;;;;;;;;;;;;;;;5056671;28;28340;-89
2022/05/28 12:55:53;;;;;;;;;;;;;;;;;;5058016;28;28457;-89
2022/05/28 12:58:18;;;;;;;;;;;;;;;;;;5058204;28;27793;-89
2022/05/28 13:00:43;;;;;;;;;;;;;;;;;;5052620;28;28479;-87
2022/05/28 13:03:08;;;;;;;;;;;;;;;;;;5058134;28;28547;-89
2022/05/28 13:05:34;;;;;;;;;;;;;;;;;;5058281;28;28433;-88
2022/05/28 13:07:59;;;;;;;;;;;;;;;;;;5057778;28;28386;-89
2022/05/28 13:10:24;;;;;;;;;;;;;;;;;;5057487;28;28622;-87
2022/05/28 13:12:49;;;;;;;;;;;;;;;;;;5057173;28;28394;-88
2022/05/28 13:15:14;;;;;;;;;;;;;;;;;;5057064;28;28460;-88
2022/05/28 13:17:39;;;;;;;;;;;;;;;;;;5055899;28;28414;-88
2022/05/28 13:20:04;;;;;;;;;;;;;;;;;;5056023;28;28431;-87
2022/05/28 13:22:29;;;;;;;;;;;;;;;;;;5055981;28;28435;-85
2022/05/28 13:24:55;;;;;;;;;;;;;;;;;;5056072;28;28457;-84
2022/05/28 13:27:20;;;;;;;;;;;;;;;;;;5055558;28;28461;-86
2022/05/28 13:29:45;;;;;;;;;;;;;;;;;;5055419;28;28365;-84
2022/05/28 13:32:10;;;;;;;;;;;;;;;;;;5055047;28;28703;-84
2022/05/28 13:34:35;;;;;;;;;;;;;;;;;;5055572;28;28331;-84
2022/05/28 13:37:00;;;;;;;;;;;;;;;;;;5055048;28;28514;-82
2022/05/28 13:39:25;;;;;;;;;;;;;;;;;;5054235;28;28565;-83
2022/05/28 13:41:50;;;;;;;;;;;;;;;;;;5055074;28;28478;-83
2022/05/28 13:44:15;;;;;;;;;;;;;;;;;;5055230;28;28389;-83
2022/05/28 13:46:41;;;;;;;;;;;;;;;;;;5055184;28;28323;-84
2022/05/28 13:49:06;;;;;;;;;;;;;;;;;;5055249;28;28382;-87
2022/05/28 13:51:31;;;;;;;;;;;;;;;;;;5055094;28;28506;-87
2022/05/28 13:53:56;;;;;;;;;;;;;;;;;;5055109;28;28406;-85
2022/05/28 13:56:21;;;;;;;;;;;;;;;;;;5055503;28;28410;-87
2022/05/28 13:58:46;;;;;;;;;;;;;;;;;;5055775;28;28428;-87
2022/05/28 14:01:12;;;;;;;;;;;;;;;;;;5054586;28;28713;-86
2022/05/28 14:03:37;;;;;;;;;;;;;;;;;;5054695;28;28340;-87
2022/05/28 14:06:02;;;;;;;;;;;;;;;;;;5055020;28;28773;-93
2022/05/28 14:08:27;;;;;;;;;;;;;;;;;;5055495;28;28761;-94
2022/05/28 14:10:52;;;;;;;;;;;;;;;;;;5055057;28;29817;-94
2022/05/28 14:13:17;;;;;;;;;;;;;;;;;;5055419;28;28781;-95
2022/05/28 14:15:43;;;;;;;;;;;;;;;;;;5055022;28;28723;-94
2022/05/28 14:18:08;;;;;;;;;;;;;;;;;;5054724;28;28599;-94
2022/05/28 14:20:33;;;;;;;;;;;;;;;;;;5055342;28;29968;-94
2022/05/28 14:22:58;;;;;;;;;;;;;;;;;;5055322;28;28332;-93
2022/05/28 14:25:23;;;;;;;;;;;;;;;;;;5055763;28;27919;-94
2022/05/28 14:27:48;;;;;;;;;;;;;;;;;;5056790;28;27866;-95
2022/05/28 14:30:14;;;;;;;;;;;;;;;;;;5054012;28;29911;-92
2022/05/28 14:32:39;;;;;;;;;;;;;;;;;;5053676;28;28659;-92
2022/05/28 14:35:05;;;;;;;;;;;;;;;;;;5053252;28;28484;-92
2022/05/28 14:37:30;;;;;;;;;;;;;;;;;;5054054;28;28746;-94
2022/05/28 14:39:55;;;;;;;;;;;;;;;;;;5053383;28;29862;-91
2022/05/28 14:42:20;;;;;;;;;;;;;;;;;;5052823;28;28538;-93
2022/05/28 14:44:45;;;;;;;;;;;;;;;;;;5054688;28;28552;-92
2022/05/28 14:47:10;;;;;;;;;;;;;;;;;;5053171;28;28525;-92
2022/05/28 14:49:36;;;;;;;;;;;;;;;;;;5055471;28;28414;-95
2022/05/28 14:52:01;;;;;;;;;;;;;;;;;;5054337;28;28315;-94
2022/05/28 14:54:26;;;;;;;;;;;;;;;;;;5054916;28;28305;-93
2022/05/28 14:56:51;;;;;;;;;;;;;;;;;;5053980;28;28596;-93
2022/05/28 14:59:16;;;;;;;;;;;;;;;;;;5054229;28;29916;-93
2022/05/28 15:01:41;;;;;;;;;;;;;;;;;;5053909;28;28462;-95
2022/05/28 15:04:07;;;;;;;;;;;;;;;;;;5054644;28;28421;-92
2022/05/28 15:06:32;;;;;;;;;;;;;;;;;;5054372;28;28485;-94
2022/05/28 15:08:57;;;;;;;;;;;;;;;;;;5053789;28;30788;-94
2022/05/28 15:11:22;;;;;;;;;;;;;;;;;;5054017;28;28482;-94
2022/05/28 15:13:47;;;;;;;;;;;;;;;;;;5056012;28;28582;-93
2022/05/28 15:16:12;;;;;;;;;;;;;;;;;;5053828;28;28387;-93
2022/05/28 15:18:38;;;;;;;;;;;;;;;;;;5053657;28;29690;-93
2022/05/28 15:21:03;;;;;;;;;;;;;;;;;;5054865;28;28466;-94
2022/05/28 15:23:30;;;;;;;;;;;;;;;;;;5054784;28;28310;-93
2022/05/28 15:25:55;;;;;;;;;;;;;;;;;;5053733;28;28029;-92
2022/05/28 15:28:20;;;;;;;;;;;;;;;;;;5054822;28;28479;-93
2022/05/28 15:30:45;;;;;;;;;;;;;;;;;;5053515;28;28752;-93
2022/05/28 15:33:10;;;;;;;;;;;;;;;;;;5053555;28;28539;-94
2022/05/28 15:38:19;;;;;;;;;;;;;;;;;;5051699;28;28320;-91
2022/05/28 15:40:45;;;;;;;;;;;;;;;;;;5052999;28;28376;-91
2022/05/28 15:43:10;;;;;;;;;;;;;;;;;;5055167;28;28399;-92
2022/05/28 15:45:36;;;;;;;;;;;;;;;;;;5053961;28;28330;-93
2022/05/28 15:48:01;;;;;;;;;;;;;;;;;;5053448;28;29334;-94
2022/05/28 15:50:26;;;;;;;;;;;;;;;;;;5053431;28;28766;-91
2022/05/28 15:52:51;;;;;;;;;;;;;;;;;;5053441;28;28461;-91
2022/05/28 15:55:16;;;;;;;;;;;;;;;;;;5053937;28;27805;-89
2022/05/28 15:57:41;;;;;;;;;;;;;;;;;;5053451;28;28686;-92
2022/05/28 16:00:06;;;;;;;;;;;;;;;;;;5053249;28;28403;-92
2022/05/28 16:02:31;;;;;;;;;;;;;;;;;;5053717;28;28346;-90
2022/05/28 16:04:56;;;;;;;;;;;;;;;;;;5052774;28;28785;-91
2022/05/28 16:07:25;;;;;;;;;;;;;;;;;;5061212;28;28727;-90
2022/05/28 16:09:50;;;;;;;;;;;;;;;;;;5060721;28;28450;-91
2022/05/28 16:12:15;;;;;;;;;;;;;;;;;;5062786;28;28468;-92
2022/05/28 16:14:40;;;;;;;;;;;;;;;;;;5064999;28;28607;-90
2022/05/28 16:17:05;;;;;;;;;;;;;;;;;;5063925;28;28244;-91
2022/05/28 16:19:31;;;;;;;;;;;;;;;;;;5056050;28;28479;-93
2022/05/28 16:21:56;;;;;;;;;;;;;;;;;;5061556;28;28426;-90
2022/05/28 16:24:21;;;;;;;;;;;;;;;;;;5066454;28;28531;-86
2022/05/28 16:26:46;;;;;;;;;;;;;;;;;;5053410;28;28646;-90
2022/05/28 16:29:12;;;;;;;;;;;;;;;;;;5062073;28;28493;-90
2022/05/28 16:31:37;;;;;;;;;;;;;;;;;;5057001;28;28320;-90
2022/05/28 16:34:03;;;;;;;;;;;;;;;;;;5057563;28;28326;-89
2022/05/28 16:36:28;;;;;;;;;;;;;;;;;;5057183;28;28546;-87
2022/05/28 16:38:56;;;;;;;;;;;;;;;;;;5058036;28;28320;-92
2022/05/28 16:41:23;;;;;;;;;;;;;;;;;;5057510;28;28389;-92
2022/05/28 16:43:48;;;;;;;;;;;;;;;;;;5057776;28;28419;-88
2022/05/28 16:46:13;;;;;;;;;;;;;;;;;;5057047;28;28387;-87
2022/05/28 16:48:38;;;;;;;;;;;;;;;;;;5055595;28;28572;-87